ADDS METAR Data INFO
IDs: Format: Raw Decoded Include TAF

Data at: 0036 UTC 21 Jan 2018

KLBX 210017Z AUTO 16005KT 7SM -RA BKN011 BKN017 OVC023 19/18 A3004 RMK AO2 CIG 008V012 P0000 T01940183

KLBX 202339Z 2100/2124 18007KT P6SM VCSH SCT015 BKN025
  TEMPO 2100/2102 3SM -RA BR BKN012
  FM210300 17008KT 6SM BR VCSH BKN012 OVC020
  FM210600 16008KT 5SM BR VCSH SCT008 OVC012
  TEMPO 2111/2115 4SM BR OVC008
  FM211600 17012KT P6SM OVC015
  FM211900 17015G25KT P6SM VCSH BKN025 BKN040